Time;durP1;ratioP1;P1;durP2;ratioP2;P2;SDS_P1;SDS_P2;PMS_P1;PMS_P2;Temp;Humidity;BMP_temperature;BMP_pressure;BME280_temperature;BME280_humidity;BME280_pressure;Samples;Min_cycle;Max_cycle;Signal;HPM_P1;HPM_P2
2023/02/24 00:01:23;;;;;;;9.73;6.20;;;;;;;6.87;100.00;94810.22;5042128;28;20449;-76
2023/02/24 00:03:57;;;;;;;8.38;6.22;;;;;;;6.75;100.00;94803.72;5058015;28;20040;-76
2023/02/24 00:06:23;;;;;;;9.40;6.22;;;;;;;6.83;100.00;94808.94;5059630;28;20020;-75
2023/02/24 00:08:49;;;;;;;8.07;6.72;;;;;;;6.65;100.00;94810.72;5037757;28;20025;-76
2023/02/24 00:11:16;;;;;;;8.65;6.65;;;;;;;6.68;100.00;94809.59;5055402;28;20032;-76
2023/02/24 00:13:47;;;;;;;10.35;7.25;;;;;;;6.71;100.00;94807.53;5058220;28;20032;-76
2023/02/24 00:16:16;;;;;;;8.07;7.40;;;;;;;6.57;100.00;94802.97;5057942;28;20025;-76
2023/02/24 00:18:43;;;;;;;8.90;7.07;;;;;;;6.63;100.00;94806.69;5058491;28;20025;-76
2023/02/24 00:21:13;;;;;;;8.52;7.00;;;;;;;6.54;100.00;94813.56;5038378;28;20029;-76
2023/02/24 00:23:39;;;;;;;9.77;6.65;;;;;;;6.60;100.00;94807.81;5058637;28;20039;-76
2023/02/24 00:26:06;;;;;;;10.20;7.78;;;;;;;6.75;100.00;94806.28;5057596;28;20475;-76
2023/02/24 00:28:33;;;;;;;9.80;7.47;;;;;;;6.67;100.00;94803.69;5037793;28;20025;-77
2023/02/24 00:31:06;;;;;;;7.78;7.07;;;;;;;6.39;100.00;94788.53;5051133;28;20028;-75
2023/02/24 00:33:33;;;;;;;8.10;7.35;;;;;;;6.51;100.00;94798.41;5060800;28;20081;-76
2023/02/24 00:36:10;;;;;;;7.60;6.80;;;;;;;6.39;100.00;94803.94;5069786;28;20036;-77
2023/02/24 00:38:37;;;;;;;7.60;6.75;;;;;;;6.42;100.00;94799.31;5057161;28;20803;-76
2023/02/24 00:41:21;;;;;;;9.85;6.80;;;;;;;6.42;100.00;94796.75;5058149;28;20041;-76
2023/02/24 00:43:47;;;;;;;7.13;5.78;;;;;;;6.55;100.00;94786.84;5057484;28;20028;-76
2023/02/24 00:46:24;;;;;;;6.78;6.10;;;;;;;6.35;100.00;94780.28;5057485;28;20058;-76
2023/02/24 00:48:53;;;;;;;6.35;5.75;;;;;;;6.34;100.00;94776.09;5058148;28;20119;-77
2023/02/24 00:51:24;;;;;;;7.10;6.38;;;;;;;6.43;100.00;94785.47;5057693;28;20035;-77
2023/02/24 00:53:57;;;;;;;6.40;5.63;;;;;;;6.35;100.00;94785.44;5040751;28;20039;-76
2023/02/24 00:56:26;;;;;;;6.78;6.07;;;;;;;6.38;100.00;94789.47;5073924;28;20323;-77
2023/02/24 00:58:57;;;;;;;5.93;5.07;;;;;;;6.40;100.00;94772.94;5058844;28;20145;-77
2023/02/24 01:01:24;;;;;;;6.63;6.00;;;;;;;6.28;100.00;94772.38;5059015;28;20037;-76
2023/02/24 01:03:53;;;;;;;6.13;5.10;;;;;;;6.43;100.00;94782.91;5058179;28;20028;-77
2023/02/24 01:06:20;;;;;;;6.03;5.33;;;;;;;6.30;100.00;94777.34;5057543;28;20451;-77
2023/02/24 01:08:46;;;;;;;6.07;5.38;;;;;;;6.34;100.00;94770.97;5057110;28;20028;-76
2023/02/24 01:14:05;;;;;;;8.10;5.28;;;;;;;6.21;100.00;94773.91;5038655;28;20059;-77
2023/02/24 01:16:30;;;;;;;7.45;4.90;;;;;;;6.24;100.00;94770.22;5057632;28;20541;-77
2023/02/24 01:18:56;;;;;;;5.18;4.68;;;;;;;6.30;100.00;94770.44;5060016;28;20027;-77
2023/02/24 01:21:22;;;;;;;6.80;5.28;;;;;;;6.25;100.00;94766.72;5056673;28;20021;-77
2023/02/24 01:23:49;;;;;;;5.90;4.63;;;;;;;6.21;100.00;94770.53;5037976;28;20140;-77
2023/02/24 01:26:18;;;;;;;5.22;4.38;;;;;;;6.27;100.00;94769.94;5071100;28;20051;-77
2023/02/24 01:28:45;;;;;;;7.32;5.25;;;;;;;6.11;100.00;94765.47;5057934;28;20047;-77
2023/02/24 01:31:11;;;;;;;7.03;5.10;;;;;;;6.13;100.00;94765.34;5057289;28;20039;-78
2023/02/24 01:33:36;;;;;;;8.25;5.22;;;;;;;6.13;100.00;94765.34;5061794;28;20019;-77
2023/02/24 01:36:14;;;;;;;6.70;5.10;;;;;;;6.08;100.00;94765.78;5056630;28;20106;-78
2023/02/24 01:38:43;;;;;;;6.57;5.00;;;;;;;6.06;100.00;94764.31;5036453;28;20021;-78
2023/02/24 01:41:17;;;;;;;5.45;4.85;;;;;;;6.00;100.00;94763.16;5048319;28;20153;-78
2023/02/24 01:44:02;;;;;;;5.60;4.65;;;;;;;6.10;100.00;94768.22;5040396;28;20024;-78
2023/02/24 01:46:31;;;;;;;5.25;4.75;;;;;;;5.94;100.00;94771.41;5057405;28;20033;-77
2023/02/24 01:48:58;;;;;;;;;;;;;;;5.88;100.00;94773.75;5038037;28;20029;-78
2023/02/24 01:51:26;;;;;;;5.35;4.60;;;;;;;6.03;100.00;94767.19;5048116;28;19916;-77
2023/02/24 01:53:51;;;;;;;5.72;5.10;;;;;;;5.97;100.00;94760.88;5057781;28;20032;-77
2023/02/24 01:56:17;;;;;;;5.20;4.68;;;;;;;5.80;100.00;94762.44;5057265;28;20028;-77
2023/02/24 01:58:42;;;;;;;5.28;4.10;;;;;;;5.85;100.00;94764.56;5038197;28;20033;-77
2023/02/24 02:01:09;;;;;;;5.03;4.00;;;;;;;5.72;100.00;94762.34;5057222;28;20406;-77
2023/02/24 02:03:37;;;;;;;4.40;4.00;;;;;;;5.81;100.00;94768.41;5037357;28;20040;-76
2023/02/24 02:06:08;;;;;;;3.75;3.28;;;;;;;5.89;100.00;94765.13;5055885;28;20021;-78
2023/02/24 02:08:36;;;;;;;5.03;4.53;;;;;;;5.79;100.00;94772.88;5057347;28;20119;-77
2023/02/24 02:11:05;;;;;;;4.00;3.65;;;;;;;5.73;100.00;94761.41;5057407;28;20702;-77
2023/02/24 02:13:34;;;;;;;5.20;4.25;;;;;;;5.91;100.00;94758.09;5057698;28;20031;-78
2023/02/24 02:16:18;;;;;;;4.72;4.20;;;;;;;5.87;100.00;94767.03;5057651;28;20440;-77
2023/02/24 02:18:55;;;;;;;4.22;3.85;;;;;;;5.77;100.00;94762.75;5057804;28;20036;-77
2023/02/24 02:21:49;;;;;;;4.57;4.18;;;;;;;5.74;100.00;94770.75;5058930;28;20027;-77
2023/02/24 02:24:37;;;;;;;3.85;3.55;;;;;;;5.71;100.00;94778.75;5044538;28;20040;-77
2023/02/24 02:27:21;;;;;;;5.57;3.65;;;;;;;5.70;100.00;94781.44;5032991;28;20533;-77
2023/02/24 02:30:22;;;;;;;5.38;4.05;;;;;;;5.68;100.00;94784.16;5055499;28;20086;-77
2023/02/24 02:33:00;;;;;;;4.50;3.58;;;;;;;5.75;100.00;94784.38;4999267;28;20240;-78
2023/02/24 02:35:37;;;;;;;4.43;4.03;;;;;;;5.81;100.00;94779.47;5068020;28;20582;-77
2023/02/24 02:38:24;;;;;;;4.70;4.03;;;;;;;5.64;100.00;94779.47;5061268;28;20024;-77
2023/02/24 02:41:08;;;;;;;4.55;4.20;;;;;;;5.68;100.00;94780.78;5052534;28;20028;-77
2023/02/24 02:43:38;;;;;;;4.38;3.97;;;;;;;5.65;100.00;94776.72;5057623;28;20414;-78
2023/02/24 02:46:14;;;;;;;5.60;3.80;;;;;;;5.61;100.00;94775.44;5061129;28;20024;-78
2023/02/24 02:48:50;;;;;;;4.15;3.75;;;;;;;5.61;100.00;94779.75;5041512;28;20040;-77
2023/02/24 02:51:25;;;;;;;4.55;3.33;;;;;;;5.72;100.00;94772.63;5061263;28;20024;-77
2023/02/24 02:54:09;;;;;;;4.30;3.90;;;;;;;5.62;100.00;94768.53;5059430;28;20024;-77
2023/02/24 02:56:40;;;;;;;4.20;3.20;;;;;;;5.60;100.00;94768.66;5060447;28;20464;-76
2023/02/24 02:59:07;;;;;;;3.80;3.40;;;;;;;5.57;100.00;94765.59;5061545;28;20029;-77
2023/02/24 03:01:36;;;;;;;4.30;3.75;;;;;;;5.63;100.00;94765.00;5061340;28;20020;-77
2023/02/24 03:04:05;;;;;;;4.00;3.60;;;;;;;5.69;100.00;94765.22;5060016;28;20772;-77
2023/02/24 03:06:37;;;;;;;3.57;3.27;;;;;;;5.63;100.00;94758.09;5069149;28;20107;-78
2023/02/24 03:09:14;;;;;;;4.95;3.50;;;;;;;5.63;100.00;94767.56;5051001;28;20282;-77
2023/02/24 03:11:41;;;;;;;4.65;3.53;;;;;;;5.69;100.00;94764.41;5060396;28;20319;-77
2023/02/24 03:14:10;;;;;;;4.22;3.83;;;;;;;5.71;100.00;94767.66;5059629;28;20060;-77
2023/02/24 03:16:40;;;;;;;5.07;3.42;;;;;;;5.58;100.00;94759.50;5043841;28;20024;-77
2023/02/24 03:19:07;;;;;;;4.03;3.22;;;;;;;5.66;100.00;94762.94;5059269;28;20047;-78
2023/02/24 03:21:37;;;;;;;3.70;3.30;;;;;;;5.64;100.00;94758.91;5077279;28;20067;-77
2023/02/24 03:24:05;;;;;;;3.67;3.38;;;;;;;5.59;100.00;94754.19;5059551;28;20036;-78
2023/02/24 03:26:40;;;;;;;4.75;3.40;;;;;;;5.75;100.00;94761.25;5060136;28;20036;-78
2023/02/24 03:29:26;;;;;;;4.07;3.40;;;;;;;5.62;100.00;94751.34;5060009;28;20494;-77
2023/02/24 03:32:13;;;;;;;3.78;3.28;;;;;;;5.59;100.00;94750.81;5059585;28;20020;-77
2023/02/24 03:34:55;;;;;;;4.18;3.28;;;;;;;5.57;100.00;94748.41;5073121;28;20513;-77
2023/02/24 03:37:25;;;;;;;4.05;3.65;;;;;;;5.65;100.00;94748.47;5046515;28;20080;-78
2023/02/24 03:39:52;;;;;;;;;;;;;;;5.59;100.00;94751.63;5076810;28;20029;-78
2023/02/24 03:42:19;;;;;;;3.95;3.40;;;;;;;5.57;100.00;94743.28;5076977;28;19916;-77
2023/02/24 03:44:46;;;;;;;5.70;3.42;;;;;;;5.56;100.00;94738.28;5058785;28;20498;-77
2023/02/24 03:47:16;;;;;;;3.40;3.10;;;;;;;5.52;100.00;94747.25;5060005;28;20117;-77
2023/02/24 03:49:42;;;;;;;3.35;3.15;;;;;;;5.61;100.00;94754.88;5058890;28;20145;-77
2023/02/24 03:52:07;;;;;;;3.75;3.45;;;;;;;5.55;100.00;94745.19;5059583;28;20709;-77
2023/02/24 03:55:11;;;;;;;3.80;3.45;;;;;;;5.53;100.00;94741.13;5061004;28;20036;-77
2023/02/24 03:57:58;;;;;;;3.83;3.53;;;;;;;5.45;100.00;94743.63;5058875;28;20075;-77
2023/02/24 04:00:35;;;;;;;3.72;3.42;;;;;;;5.49;100.00;94739.81;5060807;28;20509;-77
2023/02/24 04:03:24;;;;;;;3.58;3.28;;;;;;;5.48;100.00;94745.91;5051336;28;20819;-77
2023/02/24 04:06:05;;;;;;;4.50;3.50;;;;;;;5.52;100.00;94747.25;5057748;28;20031;-77
2023/02/24 04:08:38;;;;;;;3.22;2.92;;;;;;;5.52;100.00;94737.75;5059093;28;20170;-78
2023/02/24 04:11:16;;;;;;;3.67;2.85;;;;;;;5.44;100.00;94719.72;5039643;28;20025;-77
2023/02/24 04:13:50;;;;;;;3.15;2.90;;;;;;;5.55;100.00;94716.94;5064684;28;20031;-77
2023/02/24 04:16:26;;;;;;;5.05;3.08;;;;;;;5.52;100.00;94722.34;5063800;28;20474;-77
2023/02/24 04:18:53;;;;;;;3.10;2.80;;;;;;;5.44;100.00;94711.19;5049772;28;20062;-77
2023/02/24 04:21:21;;;;;;;3.40;3.10;;;;;;;5.52;100.00;94719.00;5058103;28;20579;-76
2023/02/24 04:23:46;;;;;;;4.32;2.47;;;;;;;5.51;100.00;94712.22;5058084;28;20028;-78
2023/02/24 04:26:14;;;;;;;4.07;2.88;;;;;;;5.50;100.00;94705.47;5058934;28;20035;-77
2023/02/24 04:28:41;;;;;;;2.63;2.42;;;;;;;5.42;100.00;94710.53;5057775;28;20055;-77
2023/02/24 04:31:10;;;;;;;3.63;3.22;;;;;;;5.44;100.00;94706.88;5058171;28;20172;-77
2023/02/24 04:33:37;;;;;;;5.03;3.05;;;;;;;5.50;100.00;94708.84;5059181;28;20473;-77
2023/02/24 04:36:03;;;;;;;2.90;2.53;;;;;;;5.42;100.00;94701.09;5057690;28;20045;-77
2023/02/24 04:38:29;;;;;;;3.22;2.92;;;;;;;5.38;100.00;94701.50;5059268;28;20513;-78
2023/02/24 04:40:56;;;;;;;4.47;2.95;;;;;;;5.37;100.00;94694.75;5038272;28;20023;-79
2023/02/24 04:43:22;;;;;;;3.83;3.53;;;;;;;5.36;100.00;94677.75;5028696;28;20032;-77
2023/02/24 04:45:50;;;;;;;3.58;3.17;;;;;;;5.38;100.00;94686.09;5057964;28;20024;-78
2023/02/24 04:48:15;;;;;;;3.72;3.00;;;;;;;5.38;100.00;94689.47;5058750;28;20027;-78
2023/02/24 04:50:42;;;;;;;3.83;3.33;;;;;;;5.41;100.00;94698.66;5057315;28;20546;-77
2023/02/24 04:53:10;;;;;;;4.80;4.40;;;;;;;5.42;100.00;94711.34;5058456;28;20508;-77
2023/02/24 04:55:39;;;;;;;4.55;3.60;;;;;;;5.49;100.00;94712.38;5054896;28;20096;-77
2023/02/24 04:58:18;;;;;;;3.60;3.30;;;;;;;5.61;100.00;94716.34;5047969;28;20017;-77
2023/02/24 05:00:46;;;;;;;3.67;3.37;;;;;;;5.60;100.00;94716.50;5069403;28;20170;-77
2023/02/24 05:03:14;;;;;;;4.15;3.72;;;;;;;5.58;100.00;94713.28;5059375;28;20068;-77
2023/02/24 05:05:46;;;;;;;3.97;3.67;;;;;;;5.49;100.00;94714.94;5041643;28;20028;-77
2023/02/24 05:08:14;;;;;;;4.03;3.65;;;;;;;5.43;100.00;94707.00;5056995;28;20162;-78
2023/02/24 05:10:45;;;;;;;4.28;3.90;;;;;;;5.43;100.00;94705.25;5058953;28;20039;-78
2023/02/24 05:13:18;;;;;;;4.95;4.43;;;;;;;5.51;100.00;94713.03;5057586;28;20067;-77
2023/02/24 05:15:44;;;;;;;4.97;4.47;;;;;;;5.58;100.00;94715.84;5048876;28;20414;-78
2023/02/24 05:18:15;;;;;;;5.32;4.00;;;;;;;5.55;100.00;94716.13;5051282;28;20036;-77
2023/02/24 05:23:39;;;;;;;4.53;4.13;;;;;;;5.53;100.00;94703.41;5058381;28;20492;-77
2023/02/24 05:26:10;;;;;;;5.47;3.83;;;;;;;5.56;100.00;94713.41;5057542;28;20579;-77
2023/02/24 05:28:39;;;;;;;5.72;4.53;;;;;;;5.49;100.00;94699.53;5040442;28;20883;-77
2023/02/24 05:31:16;;;;;;;4.30;3.90;;;;;;;5.59;100.00;94700.25;5057967;28;20899;-77
2023/02/24 05:33:43;;;;;;;4.32;3.92;;;;;;;5.62;100.00;94699.19;5063087;28;20452;-77
2023/02/24 05:36:11;;;;;;;3.95;3.22;;;;;;;5.65;100.00;94693.75;5061659;28;20052;-77
2023/02/24 05:38:39;;;;;;;4.05;3.20;;;;;;;5.67;100.00;94687.50;5058510;28;20804;-77
2023/02/24 05:41:21;;;;;;;4.60;3.75;;;;;;;5.68;100.00;94696.03;5057657;28;20101;-77
2023/02/24 05:43:53;;;;;;;4.70;3.53;;;;;;;5.56;100.00;94684.34;5052362;28;20120;-77
2023/02/24 05:46:27;;;;;;;3.70;3.40;;;;;;;5.72;100.00;94705.03;5044459;28;20033;-77
2023/02/24 05:48:56;;;;;;;4.80;3.22;;;;;;;5.66;100.00;94701.28;5051527;28;20038;-77
2023/02/24 05:51:23;;;;;;;;;;;;;;;5.73;100.00;94706.66;5048608;28;20032;-77
2023/02/24 05:53:54;;;;;;;4.22;3.20;;;;;;;5.62;100.00;94706.91;5074222;28;19916;-77
2023/02/24 05:56:22;;;;;;;3.70;3.35;;;;;;;5.63;100.00;94709.31;5066560;28;20517;-77
2023/02/24 05:58:49;;;;;;;4.00;3.38;;;;;;;5.62;100.00;94727.44;5045233;28;20465;-77
2023/02/24 06:01:15;;;;;;;3.65;2.83;;;;;;;5.49;100.00;94702.09;5057787;28;20399;-77
2023/02/24 06:03:47;;;;;;;4.55;3.97;;;;;;;5.58;100.00;94726.94;5056427;28;20041;-77
2023/02/24 06:06:16;;;;;;;6.15;2.95;;;;;;;5.65;100.00;94722.00;5037905;28;20020;-78
2023/02/24 06:08:48;;;;;;;5.47;2.60;;;;;;;5.65;100.00;94722.00;5050593;28;20033;-77
2023/02/24 06:11:17;;;;;;;3.70;3.08;;;;;;;5.78;100.00;94737.84;5041657;28;20070;-77
2023/02/24 06:13:46;;;;;;;4.57;3.37;;;;;;;5.73;100.00;94748.56;5056830;28;20048;-77
2023/02/24 06:16:14;;;;;;;4.13;3.72;;;;;;;5.73;100.00;94743.44;5063429;28;20036;-76
2023/02/24 06:18:40;;;;;;;4.00;3.55;;;;;;;5.91;100.00;94748.59;5060885;28;20028;-77
2023/02/24 06:21:11;;;;;;;4.45;3.47;;;;;;;5.91;100.00;94734.97;5071747;28;20037;-77
2023/02/24 06:23:38;;;;;;;5.20;4.47;;;;;;;5.61;100.00;94746.38;5054342;28;20029;-77
2023/02/24 06:26:04;;;;;;;5.40;4.40;;;;;;;5.68;100.00;94752.53;5061796;28;20047;-77
2023/02/24 06:28:30;;;;;;;4.22;3.78;;;;;;;5.70;100.00;94746.28;5058032;28;20028;-77
2023/02/24 06:30:55;;;;;;;5.20;4.50;;;;;;;5.78;100.00;94748.94;5069491;28;20032;-77
2023/02/24 06:33:21;;;;;;;8.23;4.90;;;;;;;5.65;100.00;94745.13;5046557;28;20560;-77
2023/02/24 06:35:47;;;;;;;6.75;5.05;;;;;;;5.59;100.00;94746.50;5078822;28;20417;-77
2023/02/24 06:38:13;;;;;;;5.88;5.20;;;;;;;5.71;100.00;94747.09;5064659;28;20062;-77
2023/02/24 06:40:41;;;;;;;9.88;5.82;;;;;;;5.76;100.00;94745.72;5043174;28;20032;-78
2023/02/24 06:43:08;;;;;;;5.05;4.55;;;;;;;5.89;100.00;94736.84;5060528;28;20028;-77
2023/02/24 06:45:34;;;;;;;5.20;4.47;;;;;;;5.63;100.00;94734.97;5059224;28;20035;-77
2023/02/24 06:47:59;;;;;;;7.57;5.32;;;;;;;5.66;100.00;94733.88;5062959;28;20020;-77
2023/02/24 06:50:25;;;;;;;6.28;4.90;;;;;;;5.68;100.00;94726.84;5067755;28;20033;-77
2023/02/24 06:52:54;;;;;;;6.57;5.97;;;;;;;5.63;100.00;94721.34;5050601;28;20111;-77
2023/02/24 06:55:25;;;;;;;7.00;6.15;;;;;;;5.58;100.00;94711.50;5069439;28;20024;-77
2023/02/24 06:57:56;;;;;;;7.00;6.28;;;;;;;5.60;100.00;94725.00;5058984;28;20044;-78
2023/02/24 07:00:35;;;;;;;7.45;6.45;;;;;;;5.70;100.00;94724.94;5033577;28;20083;-78
2023/02/24 07:03:14;;;;;;;7.55;6.57;;;;;;;5.63;100.00;94714.44;5048202;28;20032;-77
2023/02/24 07:05:53;;;;;;;7.72;6.72;;;;;;;5.69;100.00;94702.75;5055294;28;20383;-77
2023/02/24 07:08:27;;;;;;;8.35;6.30;;;;;;;5.77;100.00;94701.09;5063699;28;20028;-77
2023/02/24 07:10:54;;;;;;;6.90;5.72;;;;;;;5.87;100.00;94693.34;5069033;28;20121;-77
2023/02/24 07:13:21;;;;;;;6.95;5.47;;;;;;;5.89;100.00;94688.03;5049227;28;20032;-76
2023/02/24 07:15:48;;;;;;;7.25;6.07;;;;;;;5.89;100.00;94683.69;5063999;28;20020;-77
2023/02/24 07:18:17;;;;;;;8.10;7.30;;;;;;;6.00;100.00;94680.09;5040902;28;20025;-76
2023/02/24 07:20:45;;;;;;;9.93;6.65;;;;;;;5.96;100.00;94676.19;5068612;28;20493;-77
2023/02/24 07:23:14;;;;;;;7.50;6.20;;;;;;;6.15;100.00;94673.44;5051621;28;20042;-77
2023/02/24 07:25:42;;;;;;;7.95;5.80;;;;;;;6.20;100.00;94668.63;5050645;28;20151;-76
2023/02/24 07:28:11;;;;;;;7.63;6.13;;;;;;;6.25;100.00;94669.81;5048281;28;20044;-77
2023/02/24 07:30:38;;;;;;;6.88;6.18;;;;;;;6.21;100.00;94680.56;5045267;28;20025;-78
2023/02/24 07:33:03;;;;;;;6.70;6.07;;;;;;;6.27;100.00;94674.78;5046864;28;20025;-77
2023/02/24 07:35:29;;;;;;;8.25;6.38;;;;;;;6.42;100.00;94675.06;5045770;28;20045;-77
2023/02/24 07:38:00;;;;;;;8.23;6.13;;;;;;;6.34;100.00;94676.63;5058293;28;20024;-77
2023/02/24 07:40:27;;;;;;;7.55;6.18;;;;;;;6.69;100.00;94677.44;5043795;28;20169;-78
2023/02/24 07:42:53;;;;;;;6.43;5.82;;;;;;;6.59;100.00;94682.69;5039754;28;20029;-77
2023/02/24 07:45:19;;;;;;;8.48;6.68;;;;;;;6.69;100.00;94674.88;5050154;28;20501;-78
2023/02/24 07:47:44;;;;;;;10.48;7.25;;;;;;;6.69;100.00;94665.38;5055044;28;20043;-77
2023/02/24 07:50:13;;;;;;;8.43;7.30;;;;;;;6.53;100.00;94678.16;5065520;28;20075;-77
2023/02/24 07:52:41;;;;;;;10.38;7.65;;;;;;;6.38;100.00;94672.00;5039933;28;20505;-77
2023/02/24 07:55:10;;;;;;;11.55;8.48;;;;;;;6.33;100.00;94667.28;5059771;28;20055;-77
2023/02/24 07:57:36;;;;;;;8.73;7.68;;;;;;;6.56;100.00;94680.44;5057304;28;20064;-78
2023/02/24 08:00:26;;;;;;;8.43;7.07;;;;;;;6.59;100.00;94676.75;5062570;28;20048;-77
2023/02/24 08:02:54;;;;;;;8.57;7.55;;;;;;;6.98;100.00;94677.88;5056235;28;20033;-77
2023/02/24 08:05:20;;;;;;;10.43;8.70;;;;;;;6.50;100.00;94681.03;5046902;28;20029;-77
2023/02/24 08:07:48;;;;;;;9.38;7.82;;;;;;;6.58;100.00;94681.06;5042573;28;20022;-77
2023/02/24 08:10:25;;;;;;;9.40;8.45;;;;;;;7.01;100.00;94692.22;5052513;28;20472;-77
2023/02/24 08:12:55;;;;;;;8.27;6.70;;;;;;;7.10;100.00;94699.00;5057962;28;20029;-77
2023/02/24 08:15:24;;;;;;;8.60;7.60;;;;;;;6.87;100.00;94685.91;5057727;28;20456;-77
2023/02/24 08:17:58;;;;;;;9.77;7.55;;;;;;;6.63;100.00;94681.44;5057923;28;20519;-77
2023/02/24 08:20:24;;;;;;;10.57;8.07;;;;;;;6.75;100.00;94685.34;5057153;28;20033;-77
2023/02/24 08:22:51;;;;;;;8.88;7.97;;;;;;;6.79;100.00;94670.41;5057156;28;20568;-77
2023/02/24 08:25:18;;;;;;;11.13;9.45;;;;;;;6.98;100.00;94665.00;5041354;28;20086;-76
2023/02/24 08:27:54;;;;;;;10.95;8.07;;;;;;;7.20;100.00;94667.00;5055550;28;20024;-78
2023/02/24 08:30:24;;;;;;;11.10;8.48;;;;;;;7.41;100.00;94669.16;5060722;28;20472;-77
2023/02/24 08:32:58;;;;;;;9.68;8.07;;;;;;;6.88;100.00;94672.88;5065388;28;20028;-79
2023/02/24 08:35:34;;;;;;;11.10;8.75;;;;;;;7.14;100.00;94672.78;5067747;28;20085;-79
2023/02/24 08:38:06;;;;;;;13.57;9.45;;;;;;;7.52;100.00;94673.19;5076427;28;20470;-79
2023/02/24 08:40:38;;;;;;;11.30;9.25;;;;;;;8.60;100.00;94655.59;5056280;28;20514;-78
2023/02/24 08:43:16;;;;;;;12.75;8.23;;;;;;;13.16;93.36;94650.81;5054763;28;20048;-78
2023/02/24 08:45:51;;;;;;;8.82;7.57;;;;;;;9.66;99.92;94645.50;5058264;28;20045;-80
2023/02/24 08:48:37;;;;;;;8.80;7.57;;;;;;;8.17;100.00;94649.03;5058458;28;20028;-79
2023/02/24 08:51:07;;;;;;;9.27;7.60;;;;;;;7.86;100.00;94651.47;5074366;28;20027;-79
2023/02/24 08:53:34;;;;;;;9.75;8.05;;;;;;;7.79;100.00;94660.00;5051015;28;20028;-78
2023/02/24 08:56:08;;;;;;;11.27;8.40;;;;;;;8.13;100.00;94657.22;5052245;28;20034;-80
2023/02/24 08:58:45;;;;;;;10.50;8.30;;;;;;;7.94;100.00;94654.03;5058391;28;20497;-77
2023/02/24 09:01:17;;;;;;;11.15;8.68;;;;;;;7.39;100.00;94645.31;5048259;28;20043;-78
2023/02/24 09:03:45;;;;;;;9.85;8.50;;;;;;;7.63;100.00;94647.94;5062936;28;20429;-77
2023/02/24 09:06:12;;;;;;;10.30;7.97;;;;;;;7.88;100.00;94644.38;5042533;28;20499;-78
2023/02/24 09:08:40;;;;;;;8.77;7.88;;;;;;;7.97;100.00;94643.41;5048979;28;20029;-77
2023/02/24 09:11:14;;;;;;;10.07;8.50;;;;;;;7.68;100.00;94630.19;5059788;28;20609;-77
2023/02/24 09:13:50;;;;;;;9.32;8.27;;;;;;;7.60;100.00;94639.72;5058134;28;20024;-78
2023/02/24 09:16:20;;;;;;;12.30;7.80;;;;;;;7.47;100.00;94627.31;5062895;28;20571;-77
2023/02/24 09:19:25;;;;;;;;;;;;;;;8.03;100.00;94638.56;5035366;28;20037;-76
2023/02/24 09:24:25;;;;;;;9.60;7.35;;;;;;;8.05;100.00;94634.88;5051478;28;20810;-75
2023/02/24 09:26:58;;;;;;;9.10;7.80;;;;;;;7.63;100.00;94629.88;5054820;28;20455;-75
2023/02/24 09:29:33;;;;;;;10.80;8.95;;;;;;;7.83;100.00;94628.56;5053939;28;20583;-75
2023/02/24 09:32:04;;;;;;;13.60;9.02;;;;;;;7.89;100.00;94624.56;5052231;28;20506;-75
2023/02/24 09:34:34;;;;;;;13.07;8.38;;;;;;;7.93;100.00;94621.47;5037436;28;20060;-76
2023/02/24 09:37:02;;;;;;;12.07;9.40;;;;;;;8.60;100.00;94618.63;5053087;28;20040;-74
2023/02/24 09:44:48;;;;;;;12.97;9.07;;;;;;;8.46;100.00;94609.81;5055680;28;20074;-77
2023/02/24 09:47:38;;;;;;;10.60;8.33;;;;;;;8.62;100.00;94609.75;5036514;28;20040;-74
2023/02/24 09:50:19;;;;;;;13.20;10.20;;;;;;;8.56;100.00;94607.03;5046186;28;20341;-75
2023/02/24 09:52:46;;;;;;;12.95;10.02;;;;;;;9.02;100.00;94600.22;5054405;28;20490;-77
2023/02/24 09:55:44;;;;;;;12.55;10.02;;;;;;;8.62;100.00;94602.00;5039477;28;20037;-74
2023/02/24 09:58:27;;;;;;;13.90;9.70;;;;;;;8.45;100.00;94595.28;5058083;28;20025;-75
2023/02/24 10:00:55;;;;;;;15.45;10.88;;;;;;;9.07;100.00;94592.75;5053713;28;20032;-75
2023/02/24 10:03:42;;;;;;;12.07;8.70;;;;;;;9.46;100.00;94583.13;5029784;28;20039;-74
2023/02/24 10:06:20;;;;;;;12.73;10.20;;;;;;;9.89;100.00;94577.25;5043325;28;20033;-77
2023/02/24 10:08:55;;;;;;;13.02;9.48;;;;;;;9.53;100.00;94558.97;5057405;28;20476;-77
2023/02/24 10:11:31;;;;;;;14.48;9.70;;;;;;;9.37;100.00;94553.16;5056809;28;20037;-76
2023/02/24 10:14:00;;;;;;;12.45;8.50;;;;;;;9.34;100.00;94548.34;5055645;28;20037;-75
2023/02/24 10:16:40;;;;;;;12.00;9.65;;;;;;;9.86;100.00;94546.56;5047993;28;20056;-78
2023/02/24 10:19:15;;;;;;;13.98;9.68;;;;;;;10.42;100.00;94545.22;5067377;28;20028;-78
2023/02/24 10:21:59;;;;;;;13.65;9.65;;;;;;;12.91;96.17;94545.66;5059834;28;20064;-78
2023/02/24 10:24:40;;;;;;;10.88;8.85;;;;;;;12.29;90.51;94536.22;5063217;28;20469;-79
2023/02/24 10:27:12;;;;;;;12.57;8.68;;;;;;;12.82;88.08;94534.66;5065853;28;20474;-78
2023/02/24 10:29:42;;;;;;;9.18;8.27;;;;;;;11.00;94.52;94536.53;5048363;28;20082;-78
2023/02/24 10:32:22;;;;;;;13.57;9.15;;;;;;;10.72;96.88;94525.28;5073209;28;20040;-78
2023/02/24 10:34:52;;;;;;;9.77;8.35;;;;;;;11.80;93.15;94518.13;5065806;28;20032;-79
2023/02/24 10:37:22;;;;;;;10.07;9.07;;;;;;;11.86;92.75;94513.97;5040409;28;20040;-78
2023/02/24 10:39:49;;;;;;;10.23;8.73;;;;;;;12.86;89.83;94512.47;5026986;28;20033;-78
2023/02/24 10:42:33;;;;;;;10.48;9.27;;;;;;;11.82;91.50;94497.16;5038498;28;20036;-77
2023/02/24 10:45:23;;;;;;;9.63;8.60;;;;;;;12.50;92.78;94507.53;5037985;28;20040;-79
2023/02/24 10:47:57;;;;;;;11.50;8.60;;;;;;;11.90;93.22;94503.03;5067875;28;20117;-78
2023/02/24 10:50:27;;;;;;;9.55;8.35;;;;;;;12.05;93.57;94503.72;5047211;28;20100;-78
2023/02/24 10:58:43;;;;;;;11.20;9.10;;;;;;;12.34;93.66;94486.28;5054855;28;20033;-78
2023/02/24 11:01:19;;;;;;;9.93;8.65;;;;;;;12.05;92.63;94479.56;5055040;28;20037;-78
2023/02/24 11:04:21;;;;;;;14.80;8.68;;;;;;;12.58;91.68;94478.00;5060021;28;20089;-78
2023/02/24 11:06:56;;;;;;;9.48;8.48;;;;;;;11.90;94.48;94469.28;5052181;28;20027;-78
2023/02/24 11:17:45;;;;;;;9.77;8.77;;;;;;;11.86;93.29;94447.31;5059366;28;20047;-79
2023/02/24 11:20:35;;;;;;;10.35;9.27;;;;;;;12.11;93.16;94445.84;5053160;28;20047;-79
2023/02/24 11:23:03;;;;;;;12.15;9.48;;;;;;;12.01;91.22;94426.41;5052699;28;20036;-79
2023/02/24 11:25:38;;;;;;;10.37;9.30;;;;;;;12.30;91.83;94438.31;5062683;28;20033;-79
2023/02/24 11:28:20;;;;;;;9.25;8.35;;;;;;;13.16;89.12;94427.19;5052888;28;20453;-79
2023/02/24 11:30:57;;;;;;;9.18;8.25;;;;;;;12.62;89.70;94415.06;5063248;28;20028;-79
2023/02/24 11:34:04;;;;;;;9.23;8.32;;;;;;;12.55;89.29;94418.66;5079304;28;21036;-79
2023/02/24 11:37:00;;;;;;;10.25;8.82;;;;;;;11.89;92.17;94423.56;5031915;28;20506;-80
2023/02/24 11:39:34;;;;;;;10.23;9.23;;;;;;;12.18;92.81;94422.50;5051609;28;20040;-78
2023/02/24 11:42:04;;;;;;;10.85;9.85;;;;;;;11.66;95.11;94404.84;5061543;28;20090;-79
2023/02/24 11:44:48;;;;;;;10.75;9.13;;;;;;;11.25;96.49;94404.78;5076126;28;20039;-81
2023/02/24 11:47:17;;;;;;;10.75;9.65;;;;;;;11.36;97.41;94406.06;5061343;28;20044;-79
2023/02/24 11:49:52;;;;;;;11.67;10.03;;;;;;;11.61;97.25;94407.22;5043550;28;20036;-77
2023/02/24 11:52:45;;;;;;;9.32;8.35;;;;;;;12.12;95.64;94402.53;5038365;28;20029;-78
2023/02/24 11:55:25;;;;;;;10.70;9.63;;;;;;;11.98;93.28;94380.91;5038920;28;20431;-78
2023/02/24 11:57:53;;;;;;;10.43;9.30;;;;;;;11.84;92.60;94376.66;5058811;28;20028;-78
2023/02/24 12:00:20;;;;;;;10.82;9.73;;;;;;;12.03;92.72;94386.31;5047732;28;20036;-78
2023/02/24 12:02:50;;;;;;;10.35;9.40;;;;;;;12.38;91.43;94368.06;5061740;28;20898;-79
2023/02/24 12:05:20;;;;;;;11.75;9.57;;;;;;;12.65;89.99;94364.50;5060718;28;20040;-78
2023/02/24 12:07:50;;;;;;;11.35;9.82;;;;;;;13.13;89.06;94360.00;5050592;28;20123;-78
2023/02/24 12:10:28;;;;;;;10.85;9.45;;;;;;;12.67;89.54;94360.72;5043106;28;20082;-78
2023/02/24 12:13:10;;;;;;;13.77;10.25;;;;;;;13.09;87.42;94346.59;5049177;28;20032;-79
2023/02/24 12:15:54;;;;;;;11.07;9.90;;;;;;;13.24;89.98;94340.34;5054837;28;20088;-78
2023/02/24 12:18:26;;;;;;;14.18;11.13;;;;;;;13.41;84.55;94344.16;5058211;28;20067;-78
2023/02/24 12:20:53;;;;;;;14.77;12.32;;;;;;;12.83;86.35;94340.53;5062298;28;20048;-79
2023/02/24 12:23:24;;;;;;;13.82;11.05;;;;;;;13.26;85.07;94323.53;5060637;28;20040;-78